Time;durP1;ratioP1;P1;durP2;ratioP2;P2;SDS_P1;SDS_P2;PMS_P1;PMS_P2;Temp;Humidity;BMP_temperature;BMP_pressure;BME280_temperature;BME280_humidity;BME280_pressure;Samples;Min_cycle;Max_cycle;Signal;HPM_P1;HPM_P2
2022/01/26 00:07:54;;;;;;;102.83;42.67;;;-2.20;99.90;;;;;;5093527;28;20183;-66
2022/01/26 00:10:21;;;;;;;110.23;45.53;;;-2.20;99.90;;;;;;5093573;28;20222;-67
2022/01/26 00:12:48;;;;;;;118.43;47.27;;;-2.20;99.90;;;;;;5093745;28;20199;-66
2022/01/26 00:15:15;;;;;;;107.37;44.63;;;-2.20;99.90;;;;;;5093716;28;20204;-67
2022/01/26 00:17:43;;;;;;;111.70;45.10;;;-2.20;99.90;;;;;;5093277;28;20224;-67
2022/01/26 00:20:17;;;;;;;116.97;46.47;;;-2.10;99.90;;;;;;5087078;28;20201;-67
2022/01/26 00:22:59;;;;;;;111.60;44.00;;;-2.10;99.90;;;;;;5073038;28;20192;-67
2022/01/26 00:25:36;;;;;;;115.83;46.00;;;-2.10;99.90;;;;;;5073435;28;20656;-66
2022/01/26 00:28:30;;;;;;;111.13;44.77;;;-2.10;99.90;;;;;;5073010;28;20617;-68
2022/01/26 00:32:00;;;;;;;112.77;45.23;;;-2.10;99.90;;;;;;5072643;28;20262;-66
2022/01/26 00:39:30;;;;;;;116.23;48.13;;;-2.00;99.90;;;;;;5088314;28;20235;-69
2022/01/26 00:41:58;;;;;;;110.70;45.50;;;-2.00;99.90;;;;;;5092998;28;20204;-69
2022/01/26 00:44:32;;;;;;;110.23;45.60;;;-2.00;99.90;;;;;;5092912;28;20303;-66
2022/01/26 00:46:59;;;;;;;112.17;45.27;;;-2.00;99.90;;;;;;5091986;28;20275;-68
2022/01/26 00:49:28;;;;;;;117.47;46.80;;;-1.90;99.90;;;;;;5093313;28;20212;-67
2022/01/26 00:51:55;;;;;;;118.37;46.77;;;-1.90;99.90;;;;;;5092908;28;20204;-67
2022/01/26 00:54:22;;;;;;;108.57;44.20;;;-1.90;99.90;;;;;;5092000;28;20565;-67
2022/01/26 00:56:49;;;;;;;100.33;42.80;;;-1.80;99.90;;;;;;5092899;28;20220;-67
2022/01/26 00:59:16;;;;;;;110.03;44.07;;;-1.80;99.90;;;;;;5092630;28;20195;-67
2022/01/26 01:01:45;;;;;;;115.83;44.80;;;-1.80;99.90;;;;;;5092774;28;20204;-67
2022/01/26 01:04:11;;;;;;;114.50;45.00;;;-1.80;99.90;;;;;;5092705;28;20253;-65
2022/01/26 01:06:45;;;;;;;115.73;47.00;;;-1.80;99.90;;;;;;5092336;28;20204;-67
2022/01/26 01:09:13;;;;;;;109.40;45.13;;;-1.80;99.90;;;;;;5092464;28;20188;-68
2022/01/26 01:11:40;;;;;;;115.00;46.43;;;-1.80;99.90;;;;;;5092524;28;20215;-66
2022/01/26 01:14:08;;;;;;;114.23;45.87;;;-1.80;99.90;;;;;;5092519;28;20295;-67
2022/01/26 01:16:35;;;;;;;120.13;47.07;;;-1.80;99.90;;;;;;5092486;28;20295;-68
2022/01/26 01:19:07;;;;;;;111.40;45.47;;;-1.80;99.90;;;;;;5091919;28;20286;-68
2022/01/26 01:22:05;;;;;;;110.00;45.33;;;-1.80;99.90;;;;;;5091205;28;20192;-66
2022/01/26 01:25:25;;;;;;;114.87;46.03;;;-1.80;99.90;;;;;;5092575;28;20632;-67
2022/01/26 01:27:57;;;;;;;122.73;47.40;;;-1.80;99.90;;;;;;5077165;28;20249;-66
2022/01/26 01:30:30;;;;;;;113.43;44.57;;;-1.80;99.90;;;;;;5082020;28;20192;-67
2022/01/26 01:33:06;;;;;;;122.07;46.03;;;-1.70;99.90;;;;;;5091684;28;20227;-66
2022/01/26 01:35:35;;;;;;;112.20;47.47;;;-1.70;99.90;;;;;;5073517;28;20250;-69
2022/01/26 01:38:08;;;;;;;124.37;47.43;;;-1.70;99.90;;;;;;5072084;28;20592;-67
2022/01/26 01:40:39;;;;;;;121.70;46.67;;;-1.70;99.90;;;;;;5071786;28;20236;-66
2022/01/26 01:43:07;;;;;;;132.97;49.20;;;-1.70;99.90;;;;;;5083731;28;20207;-67
2022/01/26 01:45:36;;;;;;;128.10;47.27;;;-1.70;99.90;;;;;;5091281;28;20203;-68
2022/01/26 01:48:04;;;;;;;127.00;49.03;;;-1.70;99.90;;;;;;5090798;28;20247;-66
2022/01/26 01:50:36;;;;;;;117.63;47.67;;;-1.80;99.90;;;;;;5091206;28;20674;-68
2022/01/26 01:53:03;;;;;;;124.27;47.73;;;-1.80;99.90;;;;;;5091978;28;20196;-67
2022/01/26 01:55:32;;;;;;;115.90;45.90;;;-1.80;99.90;;;;;;5092016;28;20220;-67
2022/01/26 01:58:01;;;;;;;124.33;49.00;;;-1.80;99.90;;;;;;5091637;28;20226;-67
2022/01/26 02:00:28;;;;;;;128.97;47.53;;;-1.80;99.90;;;;;;5091718;28;20196;-68
2022/01/26 02:02:56;;;;;;;123.07;46.37;;;-1.80;99.90;;;;;;5091798;28;20265;-67
2022/01/26 02:05:22;;;;;;;118.83;45.93;;;-1.80;99.90;;;;;;5092050;28;20546;-67
2022/01/26 02:07:49;;;;;;;127.37;46.90;;;-1.80;99.90;;;;;;5085296;28;20560;-66
2022/01/26 02:10:16;;;;;;;124.60;46.17;;;-1.80;99.90;;;;;;5071711;28;20618;-66
2022/01/26 02:12:48;;;;;;;122.10;46.07;;;-1.80;99.90;;;;;;5071826;28;20235;-66
2022/01/26 02:15:20;;;;;;;119.73;45.60;;;-1.80;99.90;;;;;;5071819;28;20193;-66
2022/01/26 02:18:12;;;;;;;116.87;46.93;;;-1.80;99.90;;;;;;5071162;28;20205;-69
2022/01/26 02:20:58;;;;;;;125.30;47.73;;;-1.80;99.90;;;;;;5071611;28;20553;-67
2022/01/26 02:51:13;;;;;;;109.23;43.00;;;-1.60;99.90;;;;;;5095364;28;20182;-68
2022/01/26 02:54:04;;;;;;;111.83;44.07;;;-1.60;99.90;;;;;;5094752;28;20232;-68
2022/01/26 02:56:43;;;;;;;110.67;42.93;;;-1.70;99.90;;;;;;5095159;28;20188;-67
2022/01/26 02:59:35;;;;;;;105.70;42.77;;;-1.60;99.90;;;;;;5094643;28;20207;-67
2022/01/26 03:02:04;;;;;;;108.63;42.70;;;-1.60;99.90;;;;;;5094224;28;20189;-68
2022/01/26 03:04:38;;;;;;;108.33;42.77;;;-1.60;99.90;;;;;;5074606;28;20205;-67
2022/01/26 03:07:11;;;;;;;106.33;43.43;;;-1.50;99.90;;;;;;5074442;28;20543;-67
2022/01/26 03:09:44;;;;;;;117.53;44.93;;;-1.50;99.90;;;;;;5073954;28;20188;-68
2022/01/26 03:12:17;;;;;;;111.70;44.97;;;-1.50;99.90;;;;;;5074381;28;20688;-68
2022/01/26 03:14:48;;;;;;;118.23;45.53;;;-1.50;99.90;;;;;;5074263;28;20204;-67
2022/01/26 03:17:29;;;;;;;113.43;45.33;;;-1.50;99.90;;;;;;5074166;28;20213;-67
2022/01/26 03:20:02;;;;;;;114.40;43.90;;;-1.50;99.90;;;;;;5074043;28;20192;-66
2022/01/26 03:28:22;;;;;;;105.67;43.43;;;-1.40;99.90;;;;;;5094221;28;20321;-66
2022/01/26 03:31:16;;;;;;;115.87;45.20;;;-1.40;99.90;;;;;;5094150;28;20196;-68
2022/01/26 03:34:00;;;;;;;114.00;43.97;;;-1.40;99.90;;;;;;5093733;28;20243;-69
2022/01/26 03:36:31;;;;;;;102.10;41.70;;;-1.30;99.90;;;;;;5094097;28;20192;-67
2022/01/26 03:39:06;;;;;;;118.83;46.03;;;-1.30;99.90;;;;;;5094047;28;20303;-68
2022/01/26 03:41:41;;;;;;;118.37;46.27;;;-1.30;99.90;;;;;;5093386;28;20231;-66
2022/01/26 03:44:09;;;;;;;108.87;42.77;;;-1.30;99.90;;;;;;5092734;28;20237;-66
2022/01/26 03:46:37;;;;;;;111.87;43.40;;;-1.30;99.90;;;;;;5093587;28;20200;-67
2022/01/26 03:49:05;;;;;;;112.63;44.50;;;-1.30;99.90;;;;;;5094016;28;20222;-66
2022/01/26 03:51:33;;;;;;;108.23;43.60;;;-1.20;99.90;;;;;;5093672;28;20230;-68
2022/01/26 03:54:00;;;;;;;104.10;42.97;;;-1.20;99.90;;;;;;5093805;28;20595;-69
2022/01/26 03:56:27;;;;;;;99.83;41.07;;;-1.30;99.90;;;;;;5093384;28;20236;-66
2022/01/26 03:58:55;;;;;;;109.70;41.77;;;-1.20;99.90;;;;;;5093703;28;20223;-68
2022/01/26 04:01:22;;;;;;;98.33;40.53;;;-1.20;99.90;;;;;;5092997;28;20204;-67
2022/01/26 04:03:49;;;;;;;100.57;40.63;;;-1.20;99.90;;;;;;5093113;28;20212;-66
2022/01/26 04:06:17;;;;;;;105.13;42.63;;;-1.20;99.90;;;;;;5093744;28;20656;-68
2022/01/26 04:08:44;;;;;;;103.80;39.13;;;-1.20;99.90;;;;;;5093659;28;20292;-68
2022/01/26 04:11:29;;;;;;;101.63;41.20;;;-1.20;99.90;;;;;;5093653;28;20730;-69
2022/01/26 04:13:57;;;;;;;106.50;40.63;;;-1.20;99.90;;;;;;5093359;28;20199;-65
2022/01/26 04:16:24;;;;;;;95.03;38.87;;;-1.30;99.90;;;;;;5093080;28;20208;-66
2022/01/26 04:18:53;;;;;;;96.47;38.40;;;-1.20;99.90;;;;;;5093304;28;20749;-68
2022/01/26 04:21:27;;;;;;;99.33;38.67;;;-1.20;99.90;;;;;;5092413;28;20276;-68
2022/01/26 04:23:59;;;;;;;102.80;40.90;;;-1.20;99.90;;;;;;5093518;28;20283;-67
2022/01/26 04:26:31;;;;;;;102.20;40.00;;;-1.30;99.90;;;;;;5093263;28;20189;-67
2022/01/26 04:29:03;;;;;;;89.27;37.33;;;-1.20;99.90;;;;;;5093270;28;20191;-68
2022/01/26 04:31:30;;;;;;;91.73;37.47;;;-1.20;99.90;;;;;;5093001;28;20190;-66
2022/01/26 04:33:57;;;;;;;92.83;37.20;;;-1.20;99.90;;;;;;5093306;28;20204;-66
2022/01/26 04:36:28;;;;;;;97.07;40.23;;;-1.20;99.90;;;;;;5092794;28;20660;-66
2022/01/26 04:38:59;;;;;;;89.70;38.67;;;-1.20;99.90;;;;;;5092335;28;20310;-65
2022/01/26 04:41:32;;;;;;;92.80;38.23;;;-1.20;99.90;;;;;;5092485;28;20239;-65
2022/01/26 04:44:05;;;;;;;89.73;36.53;;;-1.20;99.90;;;;;;5092862;28;20189;-67
2022/01/26 04:46:32;;;;;;;94.77;37.73;;;-1.20;99.90;;;;;;5092808;28;20627;-66
2022/01/26 04:48:59;;;;;;;93.60;38.77;;;-1.10;99.90;;;;;;5092955;28;20196;-66
2022/01/26 04:51:26;;;;;;;95.07;37.37;;;-1.20;99.90;;;;;;5092905;28;20253;-69
2022/01/26 04:53:52;;;;;;;98.83;39.73;;;-1.20;99.90;;;;;;5092661;28;20660;-66
2022/01/26 04:56:19;;;;;;;93.07;37.13;;;-1.10;99.90;;;;;;5092402;28;20218;-66
2022/01/26 04:58:46;;;;;;;92.20;37.70;;;-1.20;99.90;;;;;;5092092;28;20216;-66
2022/01/26 05:01:15;;;;;;;97.07;36.87;;;-1.20;99.90;;;;;;5092360;28;20222;-67
2022/01/26 05:03:41;;;;;;;86.43;35.53;;;-1.20;99.90;;;;;;5092616;28;20204;-67
2022/01/26 05:06:08;;;;;;;95.43;38.30;;;-1.20;99.90;;;;;;5091183;28;20208;-67
2022/01/26 05:08:36;;;;;;;100.27;37.33;;;-1.20;99.90;;;;;;5072595;28;20212;-69
2022/01/26 05:11:04;;;;;;;98.13;37.80;;;-1.20;99.90;;;;;;5071978;28;20226;-68
2022/01/26 05:13:31;;;;;;;97.00;37.43;;;-1.20;99.90;;;;;;5072029;28;20250;-67
2022/01/26 05:15:57;;;;;;;87.37;34.90;;;-1.30;99.90;;;;;;5072129;28;20204;-67
2022/01/26 05:18:26;;;;;;;92.47;35.60;;;-1.30;99.90;;;;;;5071406;28;20236;-68
2022/01/26 05:20:52;;;;;;;92.63;36.23;;;-1.30;99.90;;;;;;5071871;28;20213;-70
2022/01/26 05:23:19;;;;;;;90.83;35.73;;;-1.30;99.90;;;;;;5071760;28;20661;-67
2022/01/26 05:25:46;;;;;;;88.23;37.33;;;-1.40;99.90;;;;;;5074564;28;20692;-69
2022/01/26 05:28:13;;;;;;;96.67;35.57;;;-1.40;99.90;;;;;;5092147;28;20203;-66
2022/01/26 05:30:40;;;;;;;82.07;34.53;;;-1.50;99.90;;;;;;5091896;28;20207;-69
2022/01/26 05:33:06;;;;;;;96.93;36.37;;;-1.50;99.90;;;;;;5091694;28;20200;-70
2022/01/26 05:35:35;;;;;;;83.83;34.13;;;-1.50;99.90;;;;;;5091867;28;20307;-67
2022/01/26 05:38:02;;;;;;;92.03;35.60;;;-1.50;99.90;;;;;;5092225;28;20315;-68
2022/01/26 05:40:29;;;;;;;95.07;34.80;;;-1.50;99.90;;;;;;5091730;28;20587;-68
2022/01/26 05:42:55;;;;;;;86.93;35.13;;;-1.50;99.90;;;;;;5092068;28;20576;-67
2022/01/26 05:45:28;;;;;;;90.43;35.23;;;-1.50;99.90;;;;;;5091424;28;20196;-67
2022/01/26 05:47:55;;;;;;;96.50;37.67;;;-1.50;99.90;;;;;;5091094;28;20202;-68
2022/01/26 05:50:22;;;;;;;91.03;35.77;;;-1.50;99.90;;;;;;5091689;28;20203;-67
2022/01/26 05:52:51;;;;;;;94.40;36.67;;;-1.50;99.90;;;;;;5091703;28;20288;-71
2022/01/26 05:55:18;;;;;;;90.87;35.33;;;-1.50;99.90;;;;;;5092337;28;20572;-69
2022/01/26 05:57:45;;;;;;;86.40;35.13;;;-1.60;99.90;;;;;;5091958;28;20204;-68
2022/01/26 06:00:13;;;;;;;85.87;35.63;;;-1.50;99.90;;;;;;5091671;28;20211;-69
2022/01/26 06:02:40;;;;;;;85.47;36.50;;;-1.60;99.90;;;;;;5091947;28;20208;-69
2022/01/26 06:05:08;;;;;;;88.97;35.70;;;-1.60;99.90;;;;;;5081066;28;20215;-68
2022/01/26 06:07:35;;;;;;;97.23;36.87;;;-1.60;99.90;;;;;;5071824;28;20201;-69
2022/01/26 06:10:03;;;;;;;92.13;37.93;;;-1.60;99.90;;;;;;5071365;28;20212;-71
2022/01/26 06:12:33;;;;;;;87.17;36.30;;;-1.50;99.90;;;;;;5072266;28;20209;-71
2022/01/26 06:15:00;;;;;;;90.23;35.70;;;-1.50;99.90;;;;;;5071800;28;20212;-71
2022/01/26 06:17:27;;;;;;;89.80;34.80;;;-1.50;99.90;;;;;;5072223;28;20205;-70
2022/01/26 06:19:54;;;;;;;83.77;35.40;;;-1.50;99.90;;;;;;5075783;28;20236;-68
2022/01/26 06:22:20;;;;;;;78.93;33.20;;;-1.50;99.90;;;;;;5075603;28;20201;-67
2022/01/26 06:24:47;;;;;;;81.63;33.47;;;-1.50;99.90;;;;;;5075875;28;20286;-69
2022/01/26 06:27:15;;;;;;;82.20;34.13;;;-1.50;99.90;;;;;;5075374;28;20211;-68
2022/01/26 06:29:42;;;;;;;85.97;35.60;;;-1.50;99.90;;;;;;5075512;28;20367;-69
2022/01/26 06:32:09;;;;;;;87.10;34.67;;;-1.60;99.90;;;;;;5075301;28;20201;-67
2022/01/26 06:34:39;;;;;;;84.23;33.43;;;-1.60;99.90;;;;;;5075354;28;20205;-71
2022/01/26 06:37:06;;;;;;;81.63;34.77;;;-1.60;99.90;;;;;;5075304;28;20259;-69
2022/01/26 06:39:34;;;;;;;88.03;35.97;;;-1.60;99.90;;;;;;5075360;28;20228;-71
2022/01/26 06:42:00;;;;;;;85.33;34.40;;;-1.60;99.90;;;;;;5089017;28;20200;-68
2022/01/26 06:44:32;;;;;;;82.70;32.77;;;-1.60;99.90;;;;;;5095339;28;20236;-68
2022/01/26 06:47:17;;;;;;;83.77;34.03;;;-1.60;99.90;;;;;;5095119;28;20188;-68
2022/01/26 06:49:44;;;;;;;78.40;33.20;;;-1.60;99.90;;;;;;5095483;28;20349;-69
2022/01/26 06:52:11;;;;;;;84.23;33.67;;;-1.60;99.90;;;;;;5095133;28;20224;-69
2022/01/26 06:54:38;;;;;;;83.23;34.33;;;-1.60;99.90;;;;;;5095728;28;20207;-68
2022/01/26 06:57:05;;;;;;;86.03;33.23;;;-1.60;99.90;;;;;;5095213;28;20299;-67
2022/01/26 06:59:33;;;;;;;87.00;34.17;;;-1.60;99.90;;;;;;5095532;28;20573;-67
2022/01/26 07:02:00;;;;;;;82.73;33.97;;;-1.60;99.90;;;;;;5094801;28;20208;-71
2022/01/26 07:04:27;;;;;;;80.73;32.60;;;-1.50;99.90;;;;;;5094373;28;20200;-69
2022/01/26 07:06:54;;;;;;;76.70;31.77;;;-1.50;99.90;;;;;;5094890;28;20701;-70
2022/01/26 07:09:21;;;;;;;81.47;32.87;;;-1.50;99.90;;;;;;5094210;28;20196;-66
2022/01/26 07:11:48;;;;;;;78.50;30.97;;;-1.50;99.90;;;;;;5094104;28;20215;-69
2022/01/26 07:14:25;;;;;;;78.97;32.43;;;-1.50;99.90;;;;;;5095051;28;20295;-67
2022/01/26 07:20:02;;;;;;;79.63;31.77;;;-1.50;99.90;;;;;;5094230;28;20215;-69
2022/01/26 07:22:29;;;;;;;80.47;33.23;;;-1.50;99.90;;;;;;5094853;28;20266;-68
2022/01/26 07:24:55;;;;;;;76.03;31.07;;;-1.50;99.90;;;;;;5094765;28;20563;-68
2022/01/26 07:27:22;;;;;;;74.43;29.60;;;-1.50;99.90;;;;;;5094513;28;20210;-67
2022/01/26 07:29:50;;;;;;;65.40;28.37;;;-1.50;99.90;;;;;;5094016;28;20215;-69
2022/01/26 07:32:18;;;;;;;71.53;30.27;;;-1.50;99.90;;;;;;5094821;28;20615;-66
2022/01/26 07:34:45;;;;;;;71.03;29.83;;;-1.50;99.90;;;;;;5094688;28;20294;-71
2022/01/26 07:37:13;;;;;;;73.10;29.33;;;-1.50;99.90;;;;;;5094141;28;20571;-70
2022/01/26 07:39:46;;;;;;;69.10;29.20;;;-1.50;99.90;;;;;;5093595;28;20250;-68
2022/01/26 07:42:14;;;;;;;64.47;28.40;;;-1.50;99.90;;;;;;5094451;28;20193;-68
2022/01/26 07:44:41;;;;;;;68.90;29.97;;;-1.40;99.90;;;;;;5094519;28;20212;-68
2022/01/26 07:47:11;;;;;;;72.83;31.20;;;-1.40;99.90;;;;;;5094532;28;20208;-67
2022/01/26 07:49:39;;;;;;;64.03;26.83;;;-1.40;99.90;;;;;;5094318;28;20494;-69
2022/01/26 07:52:06;;;;;;;69.70;28.87;;;-1.40;99.90;;;;;;5094094;28;20224;-69
2022/01/26 07:54:33;;;;;;;68.70;28.67;;;-1.40;99.90;;;;;;5094165;28;20204;-68
2022/01/26 07:57:00;;;;;;;58.97;25.93;;;-1.30;99.90;;;;;;5094005;28;20204;-69
2022/01/26 07:59:27;;;;;;;57.70;26.67;;;-1.30;99.90;;;;;;5093344;28;20224;-69
2022/01/26 08:01:54;;;;;;;57.10;26.20;;;-1.20;99.90;;;;;;5093575;28;20207;-69
2022/01/26 08:04:21;;;;;;;56.63;25.53;;;-1.20;99.90;;;;;;5093986;28;20204;-70
2022/01/26 08:06:50;;;;;;;58.57;25.23;;;-1.20;99.90;;;;;;5093129;28;20202;-71
2022/01/26 08:09:17;;;;;;;49.90;22.57;;;-1.10;99.90;;;;;;5093665;28;20207;-68
2022/01/26 08:11:44;;;;;;;56.30;23.23;;;-1.10;99.90;;;;;;5093516;28;20206;-69
2022/01/26 08:14:10;;;;;;;54.27;23.40;;;-1.10;99.90;;;;;;5093555;28;20605;-69
2022/01/26 08:16:38;;;;;;;49.13;22.47;;;-1.10;99.90;;;;;;5093751;28;20560;-70
2022/01/26 08:19:05;;;;;;;49.17;21.50;;;-1.00;99.90;;;;;;5093553;28;20219;-69
2022/01/26 08:21:32;;;;;;;49.50;20.47;;;-1.00;99.90;;;;;;5093740;28;20204;-70
2022/01/26 08:24:04;;;;;;;53.37;21.20;;;-1.00;99.90;;;;;;5093788;28;20294;-68
2022/01/26 08:26:39;;;;;;;43.83;18.90;;;-0.90;99.90;;;;;;5093366;28;20249;-69
2022/01/26 08:29:12;;;;;;;45.03;19.37;;;-0.90;99.90;;;;;;5093408;28;20195;-70
2022/01/26 08:31:38;;;;;;;47.37;21.23;;;-0.80;99.90;;;;;;5093368;28;20286;-67
2022/01/26 08:34:05;;;;;;;42.23;18.20;;;-0.80;99.90;;;;;;5093614;28;20204;-67
2022/01/26 08:36:32;;;;;;;38.37;17.60;;;-0.80;99.90;;;;;;5093472;28;20200;-69
2022/01/26 08:39:00;;;;;;;40.23;18.97;;;-0.70;99.90;;;;;;5092837;28;20228;-69
2022/01/26 08:41:27;;;;;;;37.23;17.73;;;-0.70;99.90;;;;;;5092033;28;20596;-69
2022/01/26 08:43:54;;;;;;;40.53;17.93;;;-0.60;99.90;;;;;;5092718;28;20200;-69
2022/01/26 08:46:21;;;;;;;34.13;16.40;;;-0.60;99.90;;;;;;5093300;28;20204;-70
2022/01/26 08:48:48;;;;;;;40.97;18.83;;;-0.60;99.90;;;;;;5093043;28;20199;-68
2022/01/26 08:51:16;;;;;;;38.20;18.10;;;-0.60;99.90;;;;;;5092138;28;20216;-67
2022/01/26 08:53:43;;;;;;;43.07;18.47;;;-0.60;99.90;;;;;;5093099;28;20273;-69
2022/01/26 08:56:11;;;;;;;36.37;16.50;;;-0.60;99.90;;;;;;5093052;28;20215;-68
2022/01/26 08:58:38;;;;;;;34.93;16.83;;;-0.50;99.90;;;;;;5093036;28;20203;-70
2022/01/26 09:01:04;;;;;;;32.80;16.20;;;-0.50;99.90;;;;;;5092592;28;20715;-70
2022/01/26 09:03:38;;;;;;;37.37;16.20;;;-0.50;99.90;;;;;;5093019;28;20214;-69
2022/01/26 09:06:04;;;;;;;35.73;17.57;;;-0.50;99.90;;;;;;5092655;28;20196;-69
2022/01/26 09:08:31;;;;;;;37.13;16.07;;;-0.40;99.90;;;;;;5092236;28;20664;-68
2022/01/26 09:11:01;;;;;;;35.83;15.87;;;-0.50;99.90;;;;;;5092358;28;20656;-68
2022/01/26 09:13:31;;;;;;;37.33;17.43;;;-0.50;99.90;;;;;;5092813;28;20203;-68
2022/01/26 09:15:58;;;;;;;34.00;15.83;;;-0.50;99.90;;;;;;5092589;28;20629;-67
2022/01/26 09:18:33;;;;;;;37.23;16.73;;;-0.50;99.90;;;;;;5092702;28;20208;-69
2022/01/26 09:21:00;;;;;;;36.10;17.23;;;-0.40;99.90;;;;;;5092431;28;20247;-69
2022/01/26 09:23:27;;;;;;;38.17;17.37;;;-0.40;99.90;;;;;;5092263;28;20307;-69
2022/01/26 09:25:54;;;;;;;34.40;16.47;;;-0.40;99.90;;;;;;5091365;28;20199;-69
2022/01/26 09:28:21;;;;;;;40.07;17.83;;;-0.30;99.90;;;;;;5092601;28;20200;-70
2022/01/26 09:30:49;;;;;;;35.53;16.63;;;-0.30;99.90;;;;;;5092376;28;20633;-68
2022/01/26 09:33:16;;;;;;;34.23;16.43;;;-0.30;99.90;;;;;;5091569;28;20203;-70
2022/01/26 09:35:44;;;;;;;35.03;15.87;;;-0.30;99.90;;;;;;5092113;28;20284;-69
2022/01/26 09:38:11;;;;;;;31.67;15.90;;;-0.30;99.90;;;;;;5092261;28;20204;-68
2022/01/26 09:40:38;;;;;;;33.20;16.07;;;-0.30;99.90;;;;;;5091789;28;20236;-69
2022/01/26 09:43:05;;;;;;;35.20;16.20;;;-0.30;99.90;;;;;;5092385;28;20211;-68
2022/01/26 09:45:34;;;;;;;35.00;15.83;;;-0.20;99.90;;;;;;5092267;28;20214;-67
2022/01/26 09:48:03;;;;;;;30.83;14.13;;;-0.20;99.90;;;;;;5091956;28;20243;-69
2022/01/26 09:50:30;;;;;;;27.23;14.33;;;-0.20;99.90;;;;;;5092127;28;20584;-67
2022/01/26 09:52:57;;;;;;;32.43;15.30;;;-0.20;99.90;;;;;;5091204;28;20196;-69
2022/01/26 09:55:26;;;;;;;38.23;16.10;;;-0.30;99.90;;;;;;5092113;28;20204;-69
2022/01/26 09:57:58;;;;;;;35.40;16.07;;;-0.40;99.90;;;;;;5091655;28;20216;-69
2022/01/26 10:00:25;;;;;;;33.30;15.73;;;-0.40;99.90;;;;;;5091911;28;20715;-68
2022/01/26 10:02:57;;;;;;;38.87;17.03;;;-0.40;99.90;;;;;;5091333;28;20204;-68
2022/01/26 10:05:25;;;;;;;37.50;18.50;;;-0.40;99.90;;;;;;5092013;28;20713;-68
2022/01/26 10:08:02;;;;;;;40.60;18.93;;;-0.40;99.90;;;;;;5091868;28;20538;-69
2022/01/26 10:16:08;;;;;;;29.40;14.30;;;-0.30;99.90;;;;;;5091740;28;20322;-69
2022/01/26 10:18:35;;;;;;;28.53;14.53;;;-0.30;99.90;;;;;;5091573;28;20199;-70
2022/01/26 10:21:04;;;;;;;29.93;15.43;;;-0.30;99.90;;;;;;5091513;28;20227;-68
2022/01/26 10:23:37;;;;;;;32.50;14.27;;;-0.20;99.90;;;;;;5091349;28;20265;-71
2022/01/26 10:26:07;;;;;;;27.97;13.70;;;0.00;99.90;;;;;;5091980;28;20238;-68
2022/01/26 10:28:46;;;;;;;26.70;12.30;;;0.10;99.90;;;;;;5091990;28;20200;-70
2022/01/26 10:31:14;;;;;;;31.13;12.67;;;0.00;99.90;;;;;;5091905;28;20774;-69
2022/01/26 10:33:41;;;;;;;25.77;11.93;;;0.00;99.90;;;;;;5091717;28;20207;-69
2022/01/26 10:36:09;;;;;;;28.23;13.03;;;0.00;99.90;;;;;;5091356;28;20211;-69
2022/01/26 10:38:36;;;;;;;31.20;15.10;;;0.00;99.90;;;;;;5091270;28;20200;-67
2022/01/26 10:41:18;;;;;;;30.73;13.50;;;0.00;99.90;;;;;;5091336;28;20227;-68
2022/01/26 10:43:49;;;;;;;28.20;12.67;;;0.00;99.90;;;;;;5091417;28;20193;-68
2022/01/26 10:46:26;;;;;;;29.10;13.23;;;0.00;99.90;;;;;;5081759;28;20189;-68
2022/01/26 10:49:06;;;;;;;26.63;12.93;;;0.00;99.90;;;;;;5071361;28;20185;-69
2022/01/26 10:51:42;;;;;;;23.93;11.07;;;0.20;99.90;;;;;;5071179;28;20217;-69
2022/01/26 10:54:19;;;;;;;26.17;11.40;;;0.20;99.90;;;;;;5071477;28;20645;-68
2022/01/26 10:56:46;;;;;;;21.07;10.90;;;0.20;99.90;;;;;;5089413;28;20611;-67
2022/01/26 10:59:13;;;;;;;21.57;10.43;;;0.20;99.90;;;;;;5091285;28;20207;-67
2022/01/26 11:01:39;;;;;;;24.47;10.17;;;0.20;99.90;;;;;;5090897;28;20215;-66
2022/01/26 11:04:08;;;;;;;21.73;10.57;;;0.10;99.90;;;;;;5091005;28;20211;-69
2022/01/26 11:06:36;;;;;;;23.97;11.00;;;0.00;99.90;;;;;;5094225;28;20204;-68
2022/01/26 11:09:10;;;;;;;24.40;11.30;;;0.10;99.90;;;;;;5094941;28;20204;-68
2022/01/26 11:11:39;;;;;;;23.77;11.10;;;0.10;99.90;;;;;;5094836;28;20184;-68
2022/01/26 11:14:14;;;;;;;23.63;11.10;;;0.10;99.90;;;;;;5094721;28;20211;-67
2022/01/26 11:16:49;;;;;;;19.27;9.80;;;0.20;99.90;;;;;;5094557;28;20245;-70
2022/01/26 11:19:16;;;;;;;19.83;10.53;;;0.30;99.90;;;;;;5094181;28;20198;-68
2022/01/26 11:21:44;;;;;;;22.17;10.67;;;0.40;99.90;;;;;;5090335;28;20302;-69
2022/01/26 11:24:16;;;;;;;27.67;12.33;;;0.40;99.90;;;;;;5089377;28;20197;-68
2022/01/26 11:26:44;;;;;;;21.97;10.47;;;0.40;99.90;;;;;;5074453;28;20209;-68
2022/01/26 11:29:16;;;;;;;19.93;9.50;;;0.40;99.90;;;;;;5086173;28;20453;-68
2022/01/26 11:31:42;;;;;;;21.27;8.90;;;0.40;99.90;;;;;;5091774;28;20279;-69
2022/01/26 11:34:10;;;;;;;17.70;8.87;;;0.30;99.90;;;;;;5094463;28;20200;-69
2022/01/26 11:36:41;;;;;;;16.97;8.87;;;0.20;99.90;;;;;;5093860;28;20228;-68
2022/01/26 11:45:07;;;;;;;15.63;7.50;;;0.00;99.90;;;;;;5031473;28;20194;-70
2022/01/26 11:47:37;;;;;;;15.30;7.60;;;0.10;99.90;;;;;;5085423;28;20550;-68
2022/01/26 11:50:10;;;;;;;19.40;7.87;;;0.10;99.90;;;;;;5093891;28;20196;-68
2022/01/26 11:52:39;;;;;;;14.50;7.00;;;0.20;99.90;;;;;;5094294;28;20632;-69
2022/01/26 11:55:32;;;;;;;13.37;6.67;;;0.10;99.90;;;;;;5094221;28;20592;-70
2022/01/26 11:58:14;;;;;;;14.97;6.50;;;0.10;99.90;;;;;;5094256;28;20546;-70
2022/01/26 12:00:48;;;;;;;12.73;6.30;;;0.10;99.90;;;;;;5093807;28;20297;-67
2022/01/26 12:03:27;;;;;;;12.33;6.60;;;0.10;99.90;;;;;;5094156;28;20218;-69
2022/01/26 12:05:56;;;;;;;14.03;6.87;;;0.00;99.90;;;;;;5094124;28;20210;-67
2022/01/26 12:08:35;;;;;;;14.47;6.67;;;0.00;99.90;;;;;;5093857;28;20580;-67
2022/01/26 12:11:05;;;;;;;14.20;6.77;;;0.00;99.90;;;;;;5093951;28;20659;-68
2022/01/26 12:13:36;;;;;;;13.80;6.93;;;0.00;99.90;;;;;;5093420;28;20242;-69
2022/01/26 12:16:09;;;;;;;17.57;7.83;;;0.10;99.90;;;;;;5093361;28;20188;-69
2022/01/26 12:18:41;;;;;;;18.63;8.00;;;0.00;99.90;;;;;;5093697;28;20180;-70
2022/01/26 12:32:33;;;;;;;12.50;6.47;;;0.10;99.90;;;;;;5093131;28;20549;-69
2022/01/26 12:35:13;;;;;;;17.17;7.33;;;0.10;99.90;;;;;;5093442;28;20275;-68
2022/01/26 12:37:51;;;;;;;13.63;6.70;;;0.10;99.90;;;;;;5093366;28;20288;-69
2022/01/26 12:43:12;;;;;;;10.37;5.47;;;0.10;99.90;;;;;;5091973;28;20655;-68
2022/01/26 12:45:39;;;;;;;12.53;6.33;;;0.00;99.90;;;;;;5093019;28;20206;-68
2022/01/26 12:48:09;;;;;;;12.37;6.40;;;0.00;99.90;;;;;;5093106;28;20206;-67
2022/01/26 12:50:38;;;;;;;17.50;7.30;;;0.00;99.90;;;;;;5092711;28;20275;-67
2022/01/26 12:53:06;;;;;;;11.83;6.10;;;0.00;99.90;;;;;;5092729;28;20205;-68
2022/01/26 12:55:35;;;;;;;13.33;6.13;;;0.00;99.90;;;;;;5092883;28;20474;-72
2022/01/26 12:58:03;;;;;;;14.40;6.37;;;-0.10;99.90;;;;;;5092699;28;20208;-69
2022/01/26 13:00:41;;;;;;;13.10;6.63;;;-0.10;99.90;;;;;;5091833;28;20224;-68
2022/01/26 13:03:13;;;;;;;14.17;6.60;;;-0.10;99.90;;;;;;5092541;28;20195;-68
2022/01/26 13:05:41;;;;;;;14.60;6.53;;;-0.10;99.90;;;;;;5092735;28;20212;-69
2022/01/26 13:08:10;;;;;;;17.17;7.73;;;-0.10;99.90;;;;;;5092473;28;20210;-67
2022/01/26 13:10:38;;;;;;;17.93;8.40;;;-0.10;99.90;;;;;;5091639;28;20200;-69
2022/01/26 13:13:12;;;;;;;20.23;8.50;;;0.00;99.90;;;;;;5092148;28;20200;-68
2022/01/26 13:16:00;;;;;;;13.97;7.43;;;0.00;99.90;;;;;;5086122;28;20196;-69
2022/01/26 13:18:45;;;;;;;16.33;8.27;;;0.00;99.90;;;;;;5072175;28;20239;-69
2022/01/26 13:21:43;;;;;;;21.37;9.30;;;-0.10;99.90;;;;;;5072316;28;20653;-68
2022/01/26 13:24:29;;;;;;;17.80;8.30;;;-0.10;99.90;;;;;;5072460;28;20189;-68
2022/01/26 13:27:05;;;;;;;18.83;8.70;;;-0.10;99.90;;;;;;5071913;28;20628;-67
2022/01/26 13:29:43;;;;;;;18.47;8.70;;;0.00;99.90;;;;;;5072208;28;20184;-66
2022/01/26 13:35:23;;;;;;;20.90;9.97;;;0.00;99.90;;;;;;5014516;28;20203;-69
2022/01/26 13:38:08;;;;;;;19.90;9.27;;;0.00;99.90;;;;;;5071770;28;20251;-68
2022/01/26 13:40:49;;;;;;;20.13;9.77;;;0.10;99.90;;;;;;5071665;28;20286;-68
2022/01/26 13:44:08;;;;;;;26.10;10.97;;;0.10;99.90;;;;;;5071498;28;20201;-69
2022/01/26 13:49:31;;;;;;;23.60;10.20;;;0.00;99.90;;;;;;5064146;28;20200;-69
2022/01/26 13:52:15;;;;;;;19.93;10.40;;;0.00;99.90;;;;;;5073669;28;20201;-67
2022/01/26 13:57:46;;;;;;;25.77;11.70;;;0.00;99.90;;;;;;5034367;28;20601;-70
2022/01/26 14:00:17;;;;;;;24.77;11.23;;;0.00;99.90;;;;;;5091671;28;20188;-67
2022/01/26 14:02:45;;;;;;;25.70;11.10;;;0.00;99.90;;;;;;5092041;28;20199;-68
2022/01/26 14:05:13;;;;;;;23.63;11.30;;;0.00;99.90;;;;;;5091668;28;20226;-68
2022/01/26 14:07:40;;;;;;;24.40;12.23;;;0.00;99.90;;;;;;5091917;28;20632;-67
2022/01/26 14:10:08;;;;;;;22.97;11.70;;;0.00;99.90;;;;;;5091701;28;20678;-68